Aviation Digital Data Service (ADDS)

Output produced by METARs form (1031 UTC 19 February 2019)
found at http://www.aviationweather.gov/metar/data/
 
Forecast for: ZBSJ (ZHENGDING , CN)
Text: TAF ZBSJ 190707Z 1912/2012 18004MPS 3500 BR NSC TX06/2007Z TNM08/21Z
Forecast period: 1200 UTC 19 February 2019 to 1200 UTC 20 February 2019
Forecast type: FROM: standard forecast or significant change
Winds: from the S (180 degrees) at 9 MPH (8 knots; 4.1 m/s)
Visibility: 2.17 miles (3.49 km)
Ceiling: unknown
Clouds: missing
Weather: BR  (mist)